Alba, MI

10:05 PM EDT on July 29, 2015 (GMT -0400)
MesoWest | | Change Station
CLOSE
Current Station
Personal Weather Station
Location: Boyne Falls, MI
Elevation: 1266 ft
Nearby Weather Stations

Elev 1266 ft 45.08 °N, 84.90 °W | Updated 35 minutes ago

Clear
Clear
73 °F
Feels Like 77 °F
N
5
Wind Variable Wind from WSW
Gusts 12.0 mph

Today
High -- | Low -- °F
--% Chance of Precip.
Yesterday
High -- | Low -- °F
Precip. -- in
6:21 AM 9:09 PM
Waxing Gibbous, 97% visible
Pressure 29.83 in
Visibility 10.0 miles
Clouds Clear
Heat Index 77 °F
Dew Point 53 °F
Humidity 49%
Rainfall in
Snow Depth Not available.
UV 0 out of 12
Pollen 5.60 out of 12
Air Quality Not available.
Flu Activity Not available.
METAR KGLR 300153Z AUTO 24009KT 10SM CLR 23/11 A2986 RMK AO2 SLP102 T02280106

More Conditions Fewer Conditions

Pressure 29.83 in
Visibility 10.0 miles
Clouds Clear
Heat Index 77 °F
Dew Point 53 °F
Humidity 49%
Rainfall in
Snow Depth Not available.
UV 0 out of 12
Pollen 5.60 out of 12
Air Quality Not available.
Flu Activity Not available.
METAR KGLR 300153Z AUTO 24009KT 10SM CLR 23/11 A2986 RMK AO2 SLP102 T02280106

More Conditions Fewer Conditions

Nowcast | as of 10:00 PM EDT on July 29, 2015

At 11 PM...partly cloudy. Temperature 70. West winds 6 mph. At 1 am...partly cloudy. Temperature 65. Southwest winds 5 mph. At 3 am...partly cloudy. Temperature 62. Southwest winds 5 mph. At 5 am...mostly clear. Temperature 60. Southwest winds 5 mph.

×

10-Day Weather Forecast

×

Almanac

Astronomy

Jul. 29, 2015 Rise Set
Actual Time
Civil Twilight
Nautical Twilight
Astronomical Twilight
Moon
Length of Visible Light
Length of Day
Tomorrow will be .
, % of the Moon is Illuminated

Today's Extremes

State Highs State Lows

Community

WunderPhotos

Upload Photos

1,842,259 photos uploaded!

WunderBlogs® & News

Nearby

Air Quality

  Air Quality AQ Index Pollutant
Not available.

Snow Depth

Station Depth Elevation

Earthquake Activity

City Distance Mag. Time & Date
Minimum magnitude displayed is 2.5.

Coastal Water Temperatures

Place Temperature

Stations

Nearby Weather Stations

Station Location Temp. Windchill Dew Point Humidity Wind Precip. Elev Updated Type